TAF LDZA 161725Z 1618/1718 05008KT CAVOK
                 TX27/1712Z TN16/1623Z
    PROB40 TEMPO 1618/1700 31015G25KT 4000 +TSRA SCT035CB BKN050
    PROB30 TEMPO 1619/1622 20020KT 1500 +TSGR BKN015CB BKN035=
TAF LDZA 161125Z 1612/1712 05008KT CAVOK
                 TX32/1613Z TN16/1623Z
           TEMPO 1614/1700 35020G30KT 4000 +TSRA SCT035CB BKN050
    PROB30 TEMPO 1617/1620 20020KT 1500 +TSGR BKN015CB BKN035=
TAF AMD LDZA 160926Z 1609/1706 VRB02KT CAVOK
                     TX30/1614Z TN16/1623Z
               BECMG 1611/1613 05008KT
        PROB30 TEMPO 1611/1615 VRB15KT TSRA FEW045CB
               TEMPO 1615/1623 35020G30KT 4000 +TSRA SCT035CB BKN050
        PROB30 TEMPO 1615/1618 TSGR SCT025CB BKN035
        PROB40 TEMPO 1623/1706 TSRA FEW030CB BKN040=
TAF LDZA 160525Z 1606/1706 24005KT CAVOK
                 TX30/1614Z TN16/1623Z
           BECMG 1607/1609 05008KT
    PROB30 TEMPO 1610/1615 VRB15KT TSRA FEW045CB
           TEMPO 1615/1623 35020G30KT 4000 +TSRA SCT035CB BKN050
    PROB30 TEMPO 1615/1618 TSGR SCT025CB BKN035
    PROB40 TEMPO 1623/1706 TSRA FEW030CB BKN040=
TAF COR LDZA 152327Z 1600/1700 VRB02KT CAVOK
                     TX30/1614Z TN16/1623Z
        PROB30 TEMPO 1600/1603 VRB10KT TSRA FEW050CB
               BECMG 1603/1605 05008KT
        PROB30 TEMPO 1609/1615 VRB15KT TSRA FEW045CB
               TEMPO 1615/1621 35020G30KT 4000 +TSRA SCT035CB BKN050
        PROB30 TEMPO 1615/1618 TSGR SCT025CB BKN035
        PROB40 TEMPO 1621/1700 TSRA FEW030CB BKN040=
TAF LDZA 152325Z 1600/1700 VRB02KT CAVOK
                 TX30/1614Z TN16/1723Z
    PROB30 TEMPO 1600/1603 VRB10KT TSRA FEW050CB
           BECMG 1603/1605 05008KT
    PROB30 TEMPO 1609/1615 VRB15KT TSRA FEW045CB
           TEMPO 1615/1621 35020G30KT 4000 +TSRA SCT035CB BKN050
    PROB30 TEMPO 1615/1618 TSGR SCT025CB BKN035
    PROB40 TEMPO 1621/1700 TSRA FEW030CB BKN040=
TAF COR LDZA 152306Z 1600/1700 VRB02KT CAVOK
                     TX30/1614Z TN16/1623Z
        PROB30 TEMPO 1600/1603 VRB10KT TSRA FEW050CB
               BECMG 1603/1605 05008KT
        PROB30 TEMPO 1609/1615 VRB15KT TSRA FEW045CB
               TEMPO 1615/1621 35020G30KT 4000 +TSRA SCT035CB BKN050
        PROB30 TEMPO 1615/1618 TSGR SCT025CB BKN035
        PROB40 TEMPO 1621/1700 TSRA FEW030CB BKN040=
TAF LDZA 151725Z 1518/1618 VRB02KT CAVOK
                 TX30/1614Z TN18/1603Z
    PROB30 TEMPO 1600/1603 VRB10KT TSRA FEW050CB
           BECMG 1602/1604 05008KT
    PROB30 TEMPO 1609/1615 VRB15KT TSRA FEW045CB
           TEMPO 1615/1618 35020G30KT +TSRA SCT045CB BKN050=
TAF LDZA 151125Z 1512/1612 VRB02KT CAVOK
                 TX30/1514Z TN18/1604Z
    PROB30 TEMPO 1609/1612 VRB15KT TSRA FEW045CB=